This is the latest recevied weather packets stored in our database for station/object K9RJT. If no packets are shown the sender has not sent any weather packets the latest 1 day(s).
| Time | Temp. | Humidity | Pressure | Rain* | Wind** | Luminosity | Snow |
|---|---|---|---|---|---|---|---|
| 1778105180 | 27.22° C | 29% | 1012.1 hPa | 0 mm | - | 548 W/m² | - |
| 1778104572 | 27.22° C | 26% | 1012.2 hPa | 0 mm | - | 533 W/m² | - |
| 1778103057 | 26.67° C | 31% | 1012.5 hPa | 0 mm | - | 606 W/m² | - |
| 1778100627 | 25.56° C | 31% | 1012.8 hPa | 0 mm | - | 645 W/m² | - |
| 1778093959 | 23.89° C | 34% | 1013.9 hPa | 0 mm | - | 684 W/m² | - |
| 1778093050 | 23.33° C | 35% | 1014.2 hPa | 0 mm | - | 674 W/m² | - |
| 1778092140 | 22.78° C | 37% | 1014.1 hPa | 0 mm | - | 661 W/m² | - |
| 1778091837 | 22.78° C | 35% | 1014.2 hPa | 0 mm | - | 659 W/m² | - |
| 1778091534 | 22.78° C | 36% | 1014.3 hPa | 0 mm | - | 653 W/m² | - |
| 1778090929 | 22.78° C | 37% | 1013.9 hPa | 0 mm | - | 642 W/m² | - |
| 1778090625 | 22.78° C | 38% | 1014.2 hPa | 0 mm | - | 634 W/m² | - |
| 1778090018 | 22.22° C | 37% | 1014.2 hPa | 0 mm | - | 624 W/m² | - |
| 1778089413 | 22.78° C | 39% | 1014.3 hPa | 0 mm | - | 609 W/m² | - |
| 1778087898 | 21.11° C | 43% | 1014.5 hPa | 0 mm | - | 568 W/m² | - |
| 1778087293 | 20° C | 46% | 1014.5 hPa | 0 mm | - | 550 W/m² | - |
| 1778086688 | 20° C | 47% | 1014.5 hPa | 0 mm | - | 531 W/m² | - |
| 1778086385 | 20.56° C | 45% | 1014.6 hPa | 0 mm | - | 523 W/m² | - |
| 1778085170 | 18.89° C | 48% | 1015.1 hPa | 0 mm | - | 480 W/m² | - |
| 1778084261 | 18.33° C | 51% | 1014.8 hPa | 0 mm | - | 445 W/m² | - |
| 1778083656 | 17.22° C | 52% | 1014.9 hPa | 0 mm | - | 420 W/m² | - |
| 1778083051 | 16.67° C | 54% | 1015 hPa | 0 mm | - | 395 W/m² | - |
| 1778081306 | 14.44° C | 59% | 1015.1 hPa | 0 mm | - | 324 W/m² | - |
| 1778080702 | 13.89° C | 62% | 1015.3 hPa | 0 mm | - | 298 W/m² | - |
| 1778077673 | 10.56° C | 71% | 1015 hPa | 0 mm | - | 166 W/m² | - |
| 1778076464 | 9.44° C | 74% | 1014.6 hPa | 0 mm | - | 116 W/m² | - |
* Rain latest hour (hover to see other rain measurements)
** Current wind speed in m/s (hover to see current wind gust speed)